LIPY/AOI METAR and TAF weather

Enter ICAO airport designator
Station Type Date Time Source
LIPY METAR 2019/05/20 09:50 UTC NOAA

LIPY 200950Z 23014KT 9999 FEW060 19/08 Q1007


Station Type Date Time Source
LIPY Decoded METAR 2019/05/20 09:50 UTC NOAA

Falconara, Italy (LIPY) 43-37N 013-22E 10M
May 20, 2019 - 05:50 AM EDT / 2019.05.20 0950 UTC
Wind: from the SW (230 degrees) at 16 MPH (14 KT):0
Visibility: greater than 7 mile(s):0
Sky conditions: mostly clear
Temperature: 66 F (19 C)
Dew Point: 46 F (8 C)
Relative Humidity: 48%
Pressure (altimeter): 29.74 in. Hg (1007 hPa)
ob: LIPY 200950Z 23014KT 9999 FEW060 19/08 Q1007
cycle: 10

Station Type Date Time Source
LIPY TAF 2019/05/20 06:21 UTC NOAA

TAF LIPY 200500Z 2006/2106 22008KT 9999 SCT015 BKN040
TEMPO 2009/2014 RA

Example: see airport list